Latest Weather Observations for Williamtown

IDN60901

Issued at 7:25 pm EST Tuesday 16 September 2014 (issued every 10 minutes, with the page automatically refreshed every 10 minutes)

About weather observations | Map of Sydney area stations | Latest observations for Sydney area | Other Formats
Station Details ID: 061078 Name: WILLIAMTOWN RAAF Lat: -32.79 Lon: 151.84 Height: 9.0 m
Data from the previous 72 hours. | See also: Recent months at Williamtown
Date/Time
EST
Tmp

°C
App
Tmp
°C
Dew
Point
°C
Rel
Hum
%
Delta-T

°C
Wind Press
QNH
hPa
Press
MSL
hPa
Rain
since
9 am
mm
Dir
 
Spd
km/h
Gust
km/h
Spd
kts
Gust
kts
16/07:00pm 18.8 14.4 5.0 40 6.7 WNW 17 26 9 14 1008.5 - 0.2
16/06:30pm 20.2 15.1 3.9 34 7.8 WNW 20 32 11 17 1008.1 - 0.2
16/06:00pm 21.0 15.6 4.3 33 8.1 WNW 22 30 12 16 1007.4 1007.5 0.2
16/05:30pm 22.3 17.2 4.1 30 8.9 WNW 20 30 11 16 1006.9 - 0.2
16/05:00pm 23.5 18.1 4.3 28 9.5 WNW 22 32 12 17 1006.5 - 0.2
16/04:30pm 24.5 16.7 1.4 22 10.9 NW 32 39 17 21 1006.0 - 0.2
16/04:00pm 25.3 16.4 0.8 20 11.5 WNW 37 52 20 28 1006.1 - 0.2
16/03:43pm 25.2 17.4 2.8 23 10.9 W 33 54 18 29 1005.8 - 0.2
16/03:30pm 25.8 18.4 4.0 24 10.9 WNW 32 43 17 23 1005.7 - 0.2
16/03:00pm 26.0 20.1 7.4 30 9.9 WNW 28 35 15 19 1005.7 1005.8 0.2
16/02:30pm 25.2 21.3 9.5 37 8.6 NW 20 32 11 17 1005.9 - 0.2
16/02:00pm 25.3 21.7 10.4 39 8.3 W 20 30 11 16 1006.2 - 0.2
16/01:30pm 24.7 22.4 10.5 40 7.9 W 13 22 7 12 1006.3 - 0.2
16/01:00pm 24.5 23.2 11.2 43 7.5 WNW 9 20 5 11 1006.8 - 0.2
16/12:30pm 24.3 23.1 12.9 49 6.6 SW 11 15 6 8 1007.4 - 0.0
16/12:00pm 22.5 21.9 13.5 56 5.2 NW 9 13 5 7 1008.0 1008.1 0.0
16/11:38am 23.2 22.1 12.1 49 6.3 NNE 9 15 5 8 1008.2 - 0.0
16/11:30am 23.7 23.5 13.0 51 6.2 NNE 6 13 3 7 1008.2 - 0.0
16/11:00am 21.7 21.0 13.2 58 4.9 NE 9 11 5 6 1008.9 - 0.0
16/10:30am 19.5 19.0 13.9 70 3.2 NNE 9 17 5 9 1009.4 - 0.0
16/10:00am 19.9 17.4 12.2 61 4.3 NNE 17 28 9 15 1010.1 - 0.0
16/09:30am 20.0 18.3 12.3 61 4.3 NNE 13 20 7 11 1010.5 - 0.0
16/09:00am 19.2 17.7 13.2 68 3.4 NNE 13 17 7 9 1010.9 1011.0 0.0
16/08:30am 18.4 17.4 13.5 73 2.8 ENE 11 17 6 9 1011.2 - 0.0
16/08:00am 17.4 18.7 14.1 81 1.9 E 0 0 0 0 1011.4 - 0.0
16/07:30am 15.1 16.2 13.5 90 0.9 CALM 0 7 0 4 1011.8 - 0.0
16/07:00am 15.1 15.0 13.3 89 1.0 NE 6 11 3 6 1012.1 - 0.0
16/06:30am 14.7 14.6 13.3 91 0.8 WSW 6 11 3 6 1012.8 - 0.0
16/05:30am 15.8 14.7 13.1 84 1.5 NNE 11 17 6 9 1012.0 - 0.0
16/05:00am 15.8 14.4 13.3 85 1.4 NE 13 19 7 10 1011.7 - 0.0
16/04:30am 15.7 13.9 13.4 86 1.3 NE 15 22 8 12 1011.5 - 0.0
16/04:00am 15.9 13.7 13.4 85 1.4 NE 17 26 9 14 1011.6 - 0.0
16/03:30am 15.9 13.0 13.0 83 1.6 ENE 20 28 11 15 1011.6 - 0.0
16/03:00am 15.8 13.9 12.9 83 1.6 ENE 15 22 8 12 1012.0 1012.1 0.0
16/02:30am 15.6 14.0 12.7 83 1.6 ENE 13 26 7 14 1012.6 - 0.0
16/02:00am 15.2 13.2 12.7 85 1.4 ENE 15 24 8 13 1013.1 - 0.0
16/01:30am 15.3 15.4 12.8 85 1.4 NW 4 9 2 5 1014.6 - 0.0
16/01:00am 15.5 14.9 12.4 82 1.7 ENE 7 17 4 9 1014.7 - 0.0
16/12:30am 15.2 14.2 12.3 83 1.6 ENE 9 13 5 7 1014.5 - 0.0
16/12:00am 15.2 13.8 12.1 82 1.7 ENE 11 13 6 7 1015.1 1015.2 0.0
 
Date/Time
EST
Tmp

°C
App
Tmp
°C
Dew
Point
°C
Rel
Hum
%
Delta-T

°C
Wind Press
QNH
hPa
Press
MSL
hPa
Rain
since
9 am
mm
Dir
 
Spd
km/h
Gust
km/h
Spd
kts
Gust
kts
15/11:30pm 15.3 13.5 12.0 81 1.8 ENE 13 19 7 10 1015.3 - 0.0
15/11:00pm 14.8 13.3 11.8 82 1.6 ENE 11 15 6 8 1015.5 - 0.0
15/10:30pm 15.1 13.3 12.0 82 1.7 ENE 13 19 7 10 1015.7 - 0.0
15/10:00pm 14.9 13.8 11.9 82 1.6 ENE 9 13 5 7 1016.1 - 0.0
15/09:30pm 14.5 13.4 12.1 85 1.3 ENE 9 11 5 6 1016.3 - 0.0
15/09:00pm 14.3 13.2 11.9 85 1.3 E 9 9 5 5 1016.3 1016.4 0.0
15/08:30pm 14.6 13.5 11.8 83 1.5 E 9 11 5 6 1016.3 - 0.0
15/08:00pm 14.5 13.3 11.7 83 1.5 ENE 9 13 5 7 1016.3 - 0.0
15/07:30pm 14.8 13.5 11.4 80 1.8 ENE 9 13 5 7 1016.1 - 0.0
15/07:00pm 14.5 13.8 11.5 82 1.6 ENE 6 7 3 4 1016.1 - 0.0
15/06:30pm 15.8 14.2 11.5 75 2.3 E 11 13 6 7 1015.8 - 0.0
15/06:00pm 16.7 15.0 11.3 70 2.9 E 11 13 6 7 1015.7 1015.8 0.0
15/05:30pm 17.6 15.1 11.1 65 3.5 E 15 19 8 10 1015.4 - 0.0
15/05:00pm 18.2 14.7 11.0 63 3.9 E 20 28 11 15 1015.2 - 0.0
15/04:30pm 18.6 14.7 10.8 60 4.2 E 22 28 12 15 1015.1 - 0.0
15/04:00pm 19.2 15.3 10.9 58 4.5 E 22 30 12 16 1015.0 - 0.0
15/03:30pm 19.6 15.9 11.4 59 4.5 E 22 32 12 17 1015.0 - 0.0
15/03:00pm 19.8 16.1 11.4 58 4.6 E 22 30 12 16 1015.2 1015.3 0.0
15/02:30pm 19.6 15.9 11.6 60 4.4 ESE 22 28 12 15 1015.1 - 0.0
15/02:00pm 19.9 16.3 12.0 60 4.4 SE 22 28 12 15 1015.4 - 0.0
15/01:30pm 19.6 16.6 12.7 64 3.9 ESE 20 30 11 16 1015.7 - 0.0
15/01:00pm 19.9 16.3 13.0 64 3.9 SE 24 32 13 17 1015.9 - 0.0
15/12:30pm 20.0 17.5 13.5 66 3.7 SE 19 28 10 15 1016.2 - 0.0
15/12:00pm 20.0 17.9 13.7 67 3.6 SE 17 26 9 14 1016.4 1016.5 0.0
15/11:30am 19.4 17.6 13.4 68 3.4 S 15 19 8 10 1016.9 - 0.0
15/11:00am 18.6 17.1 13.1 70 3.1 SE 13 19 7 10 1017.5 - 0.0
15/10:30am 18.8 18.8 12.3 66 3.6 W 4 9 2 5 1018.0 - 0.0
15/10:00am 18.5 18.1 13.0 70 3.1 NE 7 11 4 6 1018.3 - 0.0
15/09:30am 18.5 18.4 13.2 71 3.0 SW 6 9 3 5 1018.5 - 0.0
15/09:00am 17.8 17.5 13.2 74 2.6 S 7 9 4 5 1018.9 1019.0 0.0
15/08:30am 17.2 16.7 13.7 80 2.0 W 9 15 5 8 1018.9 - 0.0
15/08:00am 15.4 14.7 13.2 87 1.2 WNW 9 11 5 6 1018.8 - 0.0
15/07:30am 14.7 13.7 13.4 92 0.7 WNW 11 13 6 7 1018.6 - 0.0
15/07:00am 12.7 12.0 11.9 95 0.4 NW 7 9 4 5 1018.4 - 0.0
15/06:30am 12.1 10.8 11.3 95 0.4 NW 9 13 5 7 1018.2 - 0.0
15/06:00am 11.9 10.2 11.1 95 0.4 NW 11 13 6 7 1017.8 1017.9 0.0
15/05:30am 12.1 10.0 11.3 95 0.4 NW 13 13 7 7 1017.9 - 0.0
15/05:00am 12.5 11.0 11.9 96 0.3 NNW 11 13 6 7 1017.9 - 0.0
15/04:30am 12.4 10.9 11.8 96 0.3 NW 11 13 6 7 1017.8 - 0.0
15/04:00am 12.5 11.3 11.7 95 0.4 NW 9 11 5 6 1017.6 - 0.0
15/03:30am 12.7 11.2 11.9 95 0.4 NW 11 11 6 6 1017.5 - 0.0
15/03:00am 13.0 11.6 12.3 95 0.4 NW 11 13 6 7 1017.3 1017.4 0.0
15/02:30am 13.6 12.7 12.7 94 0.5 NW 9 13 5 7 1017.6 - 0.0
15/02:00am 13.8 12.5 12.5 92 0.7 WNW 11 13 6 7 1017.7 - 0.0
15/01:30am 15.4 14.2 12.9 85 1.4 SW 11 15 6 8 1017.8 - 0.0
15/01:00am 16.2 14.8 13.3 83 1.6 SSW 13 19 7 10 1017.9 - 0.0
15/12:30am 16.4 14.7 13.5 83 1.6 S 15 19 8 10 1017.8 - 0.0
15/12:00am 16.9 14.5 14.3 85 1.5 S 20 28 11 15 1017.8 1017.9 0.0
 
Date/Time
EST
Tmp

°C
App
Tmp
°C
Dew
Point
°C
Rel
Hum
%
Delta-T

°C
Wind Press
QNH
hPa
Press
MSL
hPa
Rain
since
9 am
mm
Dir
 
Spd
km/h
Gust
km/h
Spd
kts
Gust
kts
14/11:30pm 17.0 15.0 14.9 87 1.2 S 19 24 10 13 1017.8 - 0.0
14/11:00pm 17.3 14.2 14.5 83 1.6 S 24 32 13 17 1017.6 - 0.0
14/10:30pm 16.8 14.1 14.7 87 1.2 SSW 22 30 12 16 1017.7 - 0.0
14/10:00pm 16.6 14.9 14.7 88 1.1 S 17 24 9 13 1017.7 - 0.0
14/09:30pm 15.9 15.3 13.6 86 1.3 S 9 17 5 9 1017.6 - 0.0
14/09:00pm 16.4 15.4 13.4 82 1.7 SE 11 15 6 8 1017.1 1017.2 0.0
14/08:30pm 17.2 15.7 14.2 82 1.7 ESE 15 19 8 10 1017.1 - 0.0
14/08:00pm 17.5 15.7 14.4 82 1.8 SSE 17 20 9 11 1017.1 - 0.0
14/07:30pm 18.1 16.0 13.7 75 2.5 SSE 17 22 9 12 1016.7 - 0.0
14/07:00pm 18.1 16.0 13.5 74 2.6 NE 17 20 9 11 1015.9 - 0.0
14/06:30pm 18.3 16.3 12.8 70 3.1 ENE 15 22 8 12 1015.9 - 0.0
14/06:00pm 18.5 16.2 13.0 70 3.1 ENE 17 20 9 11 1015.9 1016.0 0.0
14/05:30pm 19.6 17.8 13.3 67 3.6 ENE 15 20 8 11 1015.7 - 0.0
14/05:00pm 21.5 19.8 13.5 60 4.6 ENE 15 19 8 10 1015.5 - 0.0
14/04:30pm 24.4 21.4 7.7 34 8.8 WNW 13 19 7 10 1015.3 - 0.0
14/04:00pm 24.9 20.4 6.3 30 9.6 WNW 19 26 10 14 1015.4 - 0.0
14/03:30pm 24.9 20.4 6.0 29 9.7 WNW 19 28 10 15 1015.5 - 0.0
14/03:00pm 25.3 19.9 6.4 29 9.8 WNW 24 32 13 17 1015.6 1015.7 0.0
14/02:30pm 24.8 20.0 7.3 32 9.2 WNW 22 32 12 17 1015.7 - 0.0
14/02:00pm 24.8 19.5 7.0 32 9.3 NW 24 32 13 17 1016.0 - 0.0
14/01:30pm 24.3 19.2 7.5 34 8.8 WNW 24 35 13 19 1016.5 - 0.0
14/01:00pm 23.8 20.2 10.4 42 7.4 NW 20 28 11 15 1017.1 - 0.0
14/12:30pm 22.9 18.4 10.1 44 7.0 WNW 24 33 13 18 1017.6 - 0.0
14/12:00pm 20.8 16.4 11.6 55 5.1 NW 26 35 14 19 1018.3 1018.4 0.0
14/11:30am 19.8 17.5 12.9 64 3.9 NW 17 24 9 13 1019.1 - 0.0
14/11:00am 18.8 16.4 13.7 72 2.9 W 19 22 10 12 1019.8 - 0.0
14/10:30am 16.9 14.9 13.9 82 1.7 NW 17 20 9 11 1020.3 - 0.0
14/10:22am 16.2 14.9 13.7 85 1.4 NW 13 19 7 10 1020.4 - 0.0
14/10:00am 14.8 13.4 13.5 92 0.7 NW 13 19 7 10 1020.7 - 0.0
14/09:55am 14.8 13.2 13.9 94 0.5 NW 15 19 8 10 1020.8 - 0.0
14/09:48am 14.3 12.6 13.6 96 0.4 WNW 15 19 8 10 1020.9 - 0.0
14/09:40am 14.1 12.4 13.6 97 0.3 WNW 15 19 8 10 1021.0 - 0.0
14/09:30am 13.7 11.9 13.3 97 0.2 NW 15 19 8 10 1021.1 - 0.0
14/09:23am 13.7 11.5 13.3 97 0.2 NW 17 22 9 12 1021.1 - 0.0
14/09:00am 12.9 10.1 12.7 99 0.1 NW 19 22 10 12 1021.3 1021.4 0.0
14/08:30am 12.3 9.3 12.1 99 0.1 NW 19 24 10 13 1021.4 - 0.0
14/08:00am 12.0 9.3 11.8 99 0.1 NW 17 20 9 11 1021.5 - 0.0
14/07:30am 11.8 9.4 11.4 97 0.2 WNW 15 19 8 10 1021.4 - 0.0
14/07:00am 11.3 8.4 11.1 99 0.1 NW 17 20 9 11 1021.0 - 0.0
14/06:30am 10.5 8.9 10.3 99 0.1 NW 9 11 5 6 1020.7 - 0.0
14/06:00am 10.0 8.7 9.8 99 0.1 NW 7 9 4 5 1020.5 1020.6 0.0
14/05:30am 10.0 8.3 9.8 99 0.1 NW 9 11 5 6 1020.4 - 0.0
14/05:00am 9.0 7.0 8.6 97 0.2 NW 9 11 5 6 1020.5 - 0.0
14/04:56am 8.8 6.3 8.4 97 0.2 WNW 11 11 6 6 1020.5 - 0.0
14/04:54am 8.9 6.8 8.3 96 0.3 NW 9 11 5 6 1020.5 - 0.0
14/04:30am 8.4 7.9 7.8 96 0.3 CALM 0 0 0 0 1020.4 - 0.0
14/04:00am 8.6 8.2 8.2 97 0.2 CALM 0 0 0 0 1020.4 - 0.0
14/03:40am 9.0 8.6 8.4 96 0.3 CALM 0 0 0 0 1020.5 - 0.0
14/03:30am 9.2 8.9 8.8 97 0.2 CALM 0 0 0 0 1020.5 - 0.0
14/03:00am 9.3 9.1 9.1 99 0.1 CALM 0 0 0 0 1020.7 1020.8 0.0
14/02:30am 9.3 9.0 8.5 95 0.4 CALM 0 0 0 0 1021.0 - 0.0
14/02:00am 9.7 9.6 9.3 97 0.2 CALM 0 0 0 0 1021.1 - 0.0
14/01:30am 10.6 10.7 10.0 96 0.3 CALM 0 0 0 0 1021.5 - 0.0
14/01:00am 10.3 10.2 9.5 95 0.4 CALM 0 0 0 0 1021.9 - 0.0
14/12:30am 10.9 11.0 10.1 95 0.4 CALM 0 0 0 0 1022.2 - 0.0
14/12:00am 11.0 11.1 10.2 95 0.4 CALM 0 0 0 0 1022.6 1022.7 0.0
 
Date/Time
EST
Tmp

°C
App
Tmp
°C
Dew
Point
°C
Rel
Hum
%
Delta-T

°C
Wind Press
QNH
hPa
Press
MSL
hPa
Rain
since
9 am
mm
Dir
 
Spd
km/h
Gust
km/h
Spd
kts
Gust
kts
13/11:30pm 11.8 11.0 11.2 96 0.3 ENE 6 7 3 4 1022.6 - 0.0
13/11:00pm 12.3 12.7 11.2 93 0.6 CALM 0 0 0 0 1022.8 - 0.0
13/10:30pm 13.3 12.8 12.2 93 0.6 NNE 6 7 3 4 1023.0 - 0.0
13/10:00pm 14.2 12.9 12.4 89 1.0 NE 11 13 6 7 1023.0 - 0.0
13/09:30pm 14.8 13.5 12.4 85 1.3 ENE 11 15 6 8 1023.2 - 0.0
13/09:00pm 14.8 13.5 12.4 85 1.3 NE 11 15 6 8 1023.2 1023.3 0.0
13/08:30pm 15.4 14.1 12.5 83 1.6 NNE 11 15 6 8 1023.4 - 0.0
13/08:00pm 15.8 14.5 12.5 81 1.8 NE 11 17 6 9 1023.4 - 0.0
13/07:30pm 15.7 14.4 12.6 82 1.7 ENE 11 15 6 8 1023.4 - 0.0

Latest Capital City Observations: Canberra | Sydney | Melbourne | Brisbane | Adelaide | Perth | Hobart | Darwin

Other Formats:

Comma delimited format used in spreadsheet applications
http://www.bom.gov.au/fwo/IDN60901/IDN60901.94776.axf

JavaScript Object Notation format (JSON) in row-major order
http://www.bom.gov.au/fwo/IDN60901/IDN60901.94776.json